Time;durP1;ratioP1;P1;durP2;ratioP2;P2;SDS_P1;SDS_P2;PMS_P1;PMS_P2;Temp;Humidity;BMP_temperature;BMP_pressure;BME280_temperature;BME280_humidity;BME280_pressure;Samples;Min_cycle;Max_cycle;Signal;HPM_P1;HPM_P2
2022/09/04 00:02:37;;;;;;;1.20;0.70;;;17.50;80.20;;;;;;5069894;28;20041;-69
2022/09/04 00:05:02;;;;;;;4.93;0.93;;;17.50;80.30;;;;;;5069774;28;20115;-72
2022/09/04 00:07:38;;;;;;;3.05;0.88;;;17.40;80.40;;;;;;5070209;28;20131;-72
2022/09/04 00:10:11;;;;;;;2.03;0.80;;;17.40;80.50;;;;;;5069217;28;20052;-72
2022/09/04 00:12:56;;;;;;;3.00;0.77;;;17.30;80.60;;;;;;5069884;28;20701;-70
2022/09/04 00:15:33;;;;;;;3.42;0.98;;;17.30;80.80;;;;;;5068101;28;20369;-73
2022/09/04 00:18:10;;;;;;;3.67;0.80;;;17.30;80.90;;;;;;5069681;28;20098;-74
2022/09/04 00:20:50;;;;;;;2.40;0.85;;;17.20;80.90;;;;;;5066360;28;20040;-74
2022/09/04 00:23:48;;;;;;;4.72;0.60;;;17.20;81.10;;;;;;5068917;28;20366;-71
2022/09/04 00:26:43;;;;;;;2.90;0.70;;;17.10;81.30;;;;;;5067412;28;20476;-72
2022/09/04 00:29:23;;;;;;;1.92;1.27;;;17.10;81.30;;;;;;5066884;28;20523;-72
2022/09/04 00:32:36;;;;;;;3.72;0.93;;;17.10;81.50;;;;;;5064933;28;20044;-70
2022/09/04 00:35:19;;;;;;;3.60;0.93;;;17.00;81.50;;;;;;5063822;28;20117;-68
2022/09/04 00:37:49;;;;;;;1.48;1.00;;;17.00;81.70;;;;;;5064091;28;20044;-71
2022/09/04 00:40:39;;;;;;;3.83;0.65;;;17.00;81.80;;;;;;5069879;28;20263;-71
2022/09/04 00:43:38;;;;;;;3.28;0.45;;;16.90;81.90;;;;;;5069435;28;20044;-72
2022/09/04 00:46:13;;;;;;;2.42;0.68;;;16.90;82.10;;;;;;5069862;28;20124;-73
2022/09/04 00:48:57;;;;;;;6.88;0.95;;;16.80;82.10;;;;;;5063015;28;20408;-73
2022/09/04 00:51:26;;;;;;;2.42;0.80;;;16.80;82.40;;;;;;5067566;28;20044;-71
2022/09/04 00:54:10;;;;;;;3.08;1.00;;;16.70;82.40;;;;;;5069919;28;20049;-74
2022/09/04 00:56:41;;;;;;;4.63;0.90;;;16.80;82.60;;;;;;5065370;28;20052;-72
2022/09/04 00:59:22;;;;;;;0.85;0.68;;;16.70;82.60;;;;;;5068518;28;20385;-74
2022/09/04 01:01:55;;;;;;;2.40;0.80;;;16.60;82.80;;;;;;5069525;28;20036;-72
2022/09/04 01:04:33;;;;;;;2.40;0.50;;;16.60;82.80;;;;;;5069534;28;20454;-74
2022/09/04 01:07:24;;;;;;;4.65;1.00;;;16.60;83.00;;;;;;5069641;28;20049;-71
2022/09/04 01:10:18;;;;;;;3.08;1.08;;;16.60;83.00;;;;;;5064357;28;20045;-72
2022/09/04 01:12:50;;;;;;;3.10;0.52;;;16.50;83.20;;;;;;5068555;28;20041;-71
2022/09/04 01:15:25;;;;;;;3.65;0.70;;;16.50;83.30;;;;;;5068948;28;20642;-70
2022/09/04 01:18:05;;;;;;;5.18;0.90;;;16.40;83.40;;;;;;5069727;28;20040;-72
2022/09/04 01:21:08;;;;;;;3.00;0.80;;;16.40;83.60;;;;;;5066014;28;20053;-73
2022/09/04 01:23:48;;;;;;;1.75;0.85;;;16.40;83.70;;;;;;5063593;28;20051;-71
2022/09/04 01:26:33;;;;;;;3.47;1.00;;;16.40;83.80;;;;;;5066109;28;20072;-71
2022/09/04 01:29:12;;;;;;;0.80;0.80;;;16.30;83.90;;;;;;5069331;28;20053;-69
2022/09/04 01:31:54;;;;;;;3.20;0.60;;;16.30;84.00;;;;;;5069508;28;20063;-69
2022/09/04 01:34:58;;;;;;;3.95;0.95;;;16.30;84.10;;;;;;5067883;28;20053;-73
2022/09/04 01:37:54;;;;;;;0.80;0.80;;;16.20;84.30;;;;;;5067963;28;20056;-73
2022/09/04 01:40:41;;;;;;;2.55;0.90;;;16.20;84.50;;;;;;5069995;28;20412;-70
2022/09/04 01:43:11;;;;;;;2.83;0.85;;;16.20;84.50;;;;;;5071189;28;20484;-70
2022/09/04 01:45:56;;;;;;;2.88;1.20;;;16.20;84.50;;;;;;5072591;28;20040;-74
2022/09/04 01:49:06;;;;;;;2.65;0.82;;;16.10;84.60;;;;;;5071285;28;20412;-71
2022/09/04 01:51:49;;;;;;;3.05;0.90;;;16.20;84.90;;;;;;5063381;28;20052;-71
2022/09/04 01:54:24;;;;;;;3.95;0.93;;;16.10;84.80;;;;;;5071769;28;20111;-73
2022/09/04 01:56:56;;;;;;;1.40;0.73;;;16.30;85.00;;;;;;5072729;28;20041;-71
2022/09/04 01:59:28;;;;;;;7.53;1.17;;;16.10;84.90;;;;;;5072461;28;20048;-72
2022/09/04 02:02:19;;;;;;;1.40;0.98;;;16.10;85.00;;;;;;5072131;28;20561;-73
2022/09/04 02:05:07;;;;;;;3.58;1.02;;;16.10;85.50;;;;;;5065512;28;20490;-72
2022/09/04 02:07:46;;;;;;;6.45;1.30;;;16.10;85.10;;;;;;5064075;28;20040;-72
2022/09/04 02:10:39;;;;;;;3.60;0.75;;;16.10;85.30;;;;;;5071762;28;20472;-72
2022/09/04 02:13:28;;;;;;;2.90;0.90;;;16.10;85.40;;;;;;5072149;28;20071;-72
2022/09/04 02:16:13;;;;;;;1.05;0.93;;;16.10;85.30;;;;;;5066562;28;20053;-71
2022/09/04 02:18:54;;;;;;;4.00;0.90;;;16.10;85.40;;;;;;5066399;28;20119;-70
2022/09/04 02:21:36;;;;;;;2.53;0.95;;;16.00;85.60;;;;;;5072023;28;20388;-71
2022/09/04 02:24:17;;;;;;;5.10;0.93;;;16.00;85.80;;;;;;5070859;28;20062;-72
2022/09/04 02:26:58;;;;;;;4.50;1.10;;;16.00;85.90;;;;;;5065173;28;20046;-70
2022/09/04 02:29:54;;;;;;;5.28;1.52;;;15.90;86.00;;;;;;5067231;28;20508;-73
2022/09/04 02:32:36;;;;;;;3.35;0.85;;;15.90;86.20;;;;;;5069830;28;20653;-73
2022/09/04 02:35:41;;;;;;;3.35;1.20;;;15.80;86.20;;;;;;5067778;28;20037;-70
2022/09/04 02:38:36;;;;;;;2.10;0.88;;;15.90;87.10;;;;;;5068940;28;20048;-74
2022/09/04 02:41:26;;;;;;;2.08;1.63;;;15.80;86.60;;;;;;5067519;28;20076;-70
2022/09/04 02:44:09;;;;;;;2.33;0.93;;;15.80;86.80;;;;;;5070792;28;20047;-74
2022/09/04 02:46:44;;;;;;;4.55;1.17;;;15.80;87.00;;;;;;5069356;28;20054;-73
2022/09/04 02:49:32;;;;;;;4.18;1.40;;;15.70;86.90;;;;;;5071319;28;20076;-73
2022/09/04 02:52:36;;;;;;;2.50;1.02;;;15.70;87.10;;;;;;5038339;28;20044;-73
2022/09/04 02:55:46;;;;;;;6.78;1.20;;;15.60;87.20;;;;;;5068275;28;20143;-72
2022/09/04 02:58:38;;;;;;;5.07;1.38;;;15.60;87.40;;;;;;5066926;28;20482;-73
2022/09/04 03:01:21;;;;;;;2.53;1.17;;;15.60;87.50;;;;;;5071106;28;20056;-73
2022/09/04 03:03:57;;;;;;;5.63;1.10;;;15.50;87.60;;;;;;5070278;28;20052;-71
2022/09/04 03:06:41;;;;;;;2.05;1.10;;;15.50;87.70;;;;;;5070116;28;20492;-72
2022/09/04 03:09:22;;;;;;;5.97;1.30;;;15.50;87.70;;;;;;5065360;28;20058;-72
2022/09/04 03:12:02;;;;;;;3.92;1.10;;;15.50;88.00;;;;;;5065420;28;20508;-71
2022/09/04 03:14:39;;;;;;;3.00;1.35;;;15.40;88.10;;;;;;5070515;28;20057;-72
2022/09/04 03:17:14;;;;;;;3.17;1.17;;;15.40;88.20;;;;;;5071307;28;20052;-71
2022/09/04 03:19:55;;;;;;;1.55;1.20;;;15.30;88.30;;;;;;5061119;28;20452;-72
2022/09/04 03:22:29;;;;;;;2.55;1.40;;;15.30;88.50;;;;;;5069466;28;20036;-72
2022/09/04 03:25:32;;;;;;;5.15;0.95;;;15.30;88.50;;;;;;5070768;28;20055;-73
2022/09/04 03:27:59;;;;;;;4.07;1.33;;;15.30;88.60;;;;;;5065473;28;20068;-71
2022/09/04 03:30:26;;;;;;;2.97;1.08;;;15.30;88.60;;;;;;5069867;28;20053;-68
2022/09/04 03:33:06;;;;;;;1.73;1.00;;;15.30;88.80;;;;;;5069895;28;20389;-70
2022/09/04 03:35:41;;;;;;;2.20;0.95;;;15.20;89.00;;;;;;5069749;28;20055;-70
2022/09/04 03:38:17;;;;;;;2.90;1.27;;;15.20;89.10;;;;;;5070611;28;20044;-69
2022/09/04 03:41:04;;;;;;;1.65;1.00;;;15.10;89.10;;;;;;5061017;28;20062;-72
2022/09/04 03:43:51;;;;;;;3.17;1.00;;;15.10;89.30;;;;;;5069089;28;20052;-71
2022/09/04 03:46:38;;;;;;;6.78;1.55;;;15.10;89.30;;;;;;5069933;28;20040;-72
2022/09/04 03:49:33;;;;;;;4.43;1.30;;;15.10;89.50;;;;;;5070913;28;20043;-73
2022/09/04 03:52:18;;;;;;;2.20;1.05;;;15.10;89.70;;;;;;5070701;28;20173;-73
2022/09/04 03:55:02;;;;;;;3.65;1.30;;;15.10;89.80;;;;;;5054822;28;20052;-74
2022/09/04 03:57:47;;;;;;;3.90;1.00;;;15.00;89.60;;;;;;5070282;28;20408;-75
2022/09/04 04:00:17;;;;;;;3.40;1.30;;;15.10;90.00;;;;;;5068342;28;20052;-74
2022/09/04 04:03:02;;;;;;;3.70;1.42;;;15.00;89.70;;;;;;5061988;28;20329;-74
2022/09/04 04:05:51;;;;;;;3.53;1.27;;;15.00;90.00;;;;;;5068770;28;20048;-73
2022/09/04 04:08:47;;;;;;;3.28;1.30;;;15.00;90.10;;;;;;5069656;28;20046;-70
2022/09/04 04:11:34;;;;;;;4.93;1.42;;;14.90;90.20;;;;;;5070354;28;20567;-68
2022/09/04 04:14:37;;;;;;;2.13;1.38;;;14.90;90.20;;;;;;5069529;28;20036;-69
2022/09/04 04:17:36;;;;;;;3.28;1.10;;;14.90;90.40;;;;;;5066360;28;20473;-72
2022/09/04 04:20:15;;;;;;;1.20;1.05;;;14.90;90.40;;;;;;5080418;28;20036;-74
2022/09/04 04:22:56;;;;;;;8.20;1.80;;;14.80;90.30;;;;;;5069301;28;20051;-71
2022/09/04 04:25:48;;;;;;;1.95;1.30;;;14.90;90.70;;;;;;5069713;28;20036;-73
2022/09/04 04:28:32;;;;;;;2.08;1.27;;;14.80;90.50;;;;;;5070252;28;20039;-74
2022/09/04 04:31:24;;;;;;;2.97;0.98;;;14.80;90.50;;;;;;5068265;28;20072;-71
2022/09/04 04:34:09;;;;;;;2.72;1.50;;;14.90;90.50;;;;;;5050178;28;20111;-72
2022/09/04 04:36:54;;;;;;;2.83;1.30;;;14.90;90.50;;;;;;5069533;28;20052;-72
2022/09/04 04:39:57;;;;;;;2.72;1.20;;;14.80;90.50;;;;;;5068151;28;20583;-73
2022/09/04 04:42:32;;;;;;;2.65;1.02;;;14.80;90.50;;;;;;5066758;28;20044;-73
2022/09/04 04:48:22;;;;;;;2.35;1.35;;;14.80;90.60;;;;;;5065626;28;20521;-72
2022/09/04 04:51:11;;;;;;;5.25;1.48;;;14.80;90.70;;;;;;5061646;28;20048;-69
2022/09/04 04:54:12;;;;;;;6.57;1.60;;;14.70;90.70;;;;;;5069691;28;20056;-73
2022/09/04 04:56:56;;;;;;;4.05;1.70;;;14.70;90.90;;;;;;5069142;28;20040;-70
2022/09/04 04:59:32;;;;;;;4.35;1.10;;;14.70;91.00;;;;;;5069328;28;20032;-69
2022/09/04 05:02:21;;;;;;;2.40;1.40;;;14.60;91.00;;;;;;5069936;28;20044;-68
2022/09/04 05:05:10;;;;;;;2.55;1.25;;;14.50;91.10;;;;;;5078060;28;20419;-73
2022/09/04 05:08:11;;;;;;;1.88;1.35;;;14.50;91.20;;;;;;5068469;28;20083;-72
2022/09/04 05:10:53;;;;;;;6.28;1.30;;;14.50;91.30;;;;;;5069144;28;20447;-72
2022/09/04 05:13:45;;;;;;;2.35;1.42;;;14.50;91.30;;;;;;5069791;28;20037;-70
2022/09/04 05:16:32;;;;;;;2.88;1.83;;;14.50;91.50;;;;;;5068714;28;20041;-69
2022/09/04 05:19:19;;;;;;;3.45;1.70;;;14.50;91.50;;;;;;5069941;28;20045;-73
2022/09/04 05:22:15;;;;;;;2.85;1.45;;;14.50;91.40;;;;;;5073674;28;20033;-73
2022/09/04 05:25:08;;;;;;;5.47;1.60;;;14.50;91.50;;;;;;5072361;28;20051;-72
2022/09/04 05:27:57;;;;;;;4.40;1.33;;;14.60;91.50;;;;;;5073318;28;20106;-70
2022/09/04 05:30:47;;;;;;;7.88;1.65;;;14.60;91.60;;;;;;5071547;28;20052;-73
2022/09/04 05:33:24;;;;;;;2.35;1.08;;;14.50;91.60;;;;;;5072194;28;20578;-71
2022/09/04 05:36:01;;;;;;;4.28;1.55;;;14.60;91.60;;;;;;5065162;28;20040;-73
2022/09/04 05:38:53;;;;;;;3.33;1.25;;;14.60;91.70;;;;;;5070503;28;20047;-72
2022/09/04 05:41:52;;;;;;;3.15;1.40;;;14.50;91.80;;;;;;5072406;28;20045;-69
2022/09/04 05:44:55;;;;;;;5.05;1.45;;;14.50;91.80;;;;;;5084675;28;20048;-72
2022/09/04 05:47:51;;;;;;;1.55;1.42;;;14.50;91.90;;;;;;5068771;28;20033;-73
2022/09/04 05:50:26;;;;;;;2.45;1.38;;;14.50;92.00;;;;;;5068784;28;20050;-74
2022/09/04 05:53:11;;;;;;;3.53;1.33;;;14.50;92.00;;;;;;5081241;28;20168;-72
2022/09/04 05:56:14;;;;;;;2.88;1.30;;;14.60;92.00;;;;;;5069803;28;20048;-70
2022/09/04 05:58:59;;;;;;;2.13;1.80;;;14.60;92.10;;;;;;5072639;28;20051;-73
2022/09/04 06:01:30;;;;;;;4.03;1.58;;;14.50;92.30;;;;;;5071992;28;20457;-74
2022/09/04 06:04:24;;;;;;;2.13;1.63;;;14.50;92.30;;;;;;5065356;28;20044;-74
2022/09/04 06:07:15;;;;;;;10.73;2.00;;;14.50;92.50;;;;;;5069064;28;20200;-72
2022/09/04 06:10:16;;;;;;;5.00;2.08;;;14.50;92.60;;;;;;5069400;28;20056;-72
2022/09/04 06:13:09;;;;;;;2.72;1.60;;;14.50;92.70;;;;;;5068526;28;20057;-70
2022/09/04 06:15:56;;;;;;;5.80;1.42;;;14.60;92.70;;;;;;5071876;28;20048;-69
2022/09/04 06:18:41;;;;;;;3.33;1.35;;;14.60;92.90;;;;;;5070586;28;20048;-69
2022/09/04 06:21:44;;;;;;;5.30;1.52;;;14.60;93.00;;;;;;5069060;28;20123;-68
2022/09/04 06:24:16;;;;;;;3.63;1.50;;;14.60;93.10;;;;;;5045390;28;20043;-73
2022/09/04 06:27:00;;;;;;;6.35;1.30;;;14.60;92.90;;;;;;5072573;28;20044;-73
2022/09/04 06:29:47;;;;;;;3.05;1.95;;;14.70;93.00;;;;;;5068724;28;20091;-71
2022/09/04 06:32:12;;;;;;;4.88;2.10;;;14.70;93.00;;;;;;5066414;28;20044;-73
2022/09/04 06:35:08;;;;;;;2.25;1.70;;;14.70;93.10;;;;;;5070810;28;20048;-70
2022/09/04 06:38:16;;;;;;;5.43;1.63;;;14.70;93.20;;;;;;5070916;28;20037;-72
2022/09/04 06:40:59;;;;;;;6.85;2.17;;;14.80;93.20;;;;;;5070403;28;20526;-69
2022/09/04 06:43:46;;;;;;;6.00;2.08;;;14.80;93.30;;;;;;5069654;28;20044;-69
2022/09/04 06:46:26;;;;;;;1.90;1.75;;;14.90;93.40;;;;;;5065475;28;20589;-70
2022/09/04 06:49:34;;;;;;;1.80;1.15;;;14.90;93.40;;;;;;5072125;28;20132;-69
2022/09/04 06:52:26;;;;;;;3.63;1.40;;;15.00;93.60;;;;;;5064306;28;20040;-74
2022/09/04 06:54:59;;;;;;;3.10;1.83;;;15.10;93.60;;;;;;5069278;28;20143;-67
2022/09/04 06:57:27;;;;;;;2.45;1.58;;;15.10;93.50;;;;;;5071160;28;20049;-69
2022/09/04 07:00:06;;;;;;;2.35;1.30;;;15.20;93.50;;;;;;5071877;28;20045;-72
2022/09/04 07:02:53;;;;;;;6.18;1.90;;;15.20;93.60;;;;;;5071630;28;20044;-69
2022/09/04 07:05:26;;;;;;;3.63;1.75;;;15.30;93.80;;;;;;5065565;28;20044;-72
2022/09/04 07:08:11;;;;;;;1.50;1.30;;;15.40;93.60;;;;;;5071624;28;20032;-73
2022/09/04 07:10:58;;;;;;;5.38;1.50;;;15.50;93.70;;;;;;5070704;28;20060;-69
2022/09/04 07:13:49;;;;;;;3.78;1.73;;;15.50;93.70;;;;;;5069222;28;20044;-70
2022/09/04 07:16:39;;;;;;;4.35;1.60;;;15.60;93.80;;;;;;5065517;28;20351;-71
2022/09/04 07:19:36;;;;;;;4.03;2.40;;;15.70;93.70;;;;;;5063717;28;20372;-71
2022/09/04 07:22:22;;;;;;;10.48;1.40;;;15.80;93.60;;;;;;5069447;28;20506;-71
2022/09/04 07:25:02;;;;;;;3.45;1.60;;;15.90;93.50;;;;;;5070608;28;20051;-68
2022/09/04 07:27:54;;;;;;;3.50;1.40;;;16.00;93.60;;;;;;5066950;28;20044;-69
2022/09/04 07:30:24;;;;;;;4.70;3.92;;;16.10;93.60;;;;;;5060429;28;20084;-70
2022/09/04 07:33:03;;;;;;;3.90;3.28;;;16.10;93.40;;;;;;5070689;28;20502;-72
2022/09/04 07:35:38;;;;;;;4.25;1.92;;;16.20;93.30;;;;;;5070028;28;20047;-68
2022/09/04 07:38:31;;;;;;;3.90;2.33;;;16.30;93.50;;;;;;5067294;28;20539;-71
2022/09/04 07:41:08;;;;;;;3.70;1.42;;;16.40;93.40;;;;;;5069443;28;20140;-68
2022/09/04 07:44:02;;;;;;;3.17;1.98;;;16.40;93.40;;;;;;5066307;28;20527;-68
2022/09/04 07:46:43;;;;;;;2.10;1.60;;;16.50;93.50;;;;;;5065764;28;20084;-68
2022/09/04 07:49:27;;;;;;;4.75;1.70;;;16.60;93.30;;;;;;5063693;28;20051;-69
2022/09/04 07:52:13;;;;;;;3.95;1.80;;;16.70;93.30;;;;;;5067304;28;20048;-68
2022/09/04 07:55:07;;;;;;;5.07;1.33;;;16.70;93.20;;;;;;5069299;28;20170;-68
2022/09/04 07:57:35;;;;;;;4.32;1.52;;;16.80;93.40;;;;;;5064007;28;20480;-68
2022/09/04 08:00:09;;;;;;;4.55;1.58;;;16.90;93.30;;;;;;5067022;28;20048;-69
2022/09/04 08:02:51;;;;;;;3.38;1.83;;;17.00;93.20;;;;;;5068876;28;20051;-67
2022/09/04 08:05:36;;;;;;;7.00;1.45;;;17.00;93.10;;;;;;5067852;28;20047;-73
2022/09/04 08:08:14;;;;;;;2.13;1.77;;;17.10;93.40;;;;;;5063590;28;20116;-71
2022/09/04 08:10:52;;;;;;;3.30;1.30;;;17.20;93.30;;;;;;5067705;28;20056;-71
2022/09/04 08:14:03;;;;;;;3.70;1.60;;;17.30;93.30;;;;;;5069146;28;20044;-70
2022/09/04 08:16:59;;;;;;;3.85;1.33;;;17.40;93.30;;;;;;5065728;28;20116;-73
2022/09/04 08:19:43;;;;;;;5.35;1.60;;;17.60;93.60;;;;;;5064493;28;20040;-73
2022/09/04 08:22:21;;;;;;;7.78;1.52;;;17.70;93.30;;;;;;5067371;28;20043;-71
2022/09/04 08:25:00;;;;;;;2.85;1.45;;;17.70;93.30;;;;;;5070331;28;20044;-73
2022/09/04 08:27:41;;;;;;;2.05;1.27;;;17.90;93.40;;;;;;5069497;28;20571;-74
2022/09/04 08:30:10;;;;;;;4.90;1.35;;;18.00;93.30;;;;;;5074233;28;20063;-70
2022/09/04 08:32:54;;;;;;;2.30;1.50;;;18.10;93.20;;;;;;5070050;28;20128;-73
2022/09/04 08:35:29;;;;;;;2.00;1.15;;;18.20;93.10;;;;;;5079670;28;20458;-73
2022/09/04 08:38:25;;;;;;;1.83;1.73;;;18.30;93.10;;;;;;5070174;28;20140;-72
2022/09/04 08:41:09;;;;;;;4.03;1.48;;;18.40;93.00;;;;;;5069638;28;20048;-72
2022/09/04 08:43:46;;;;;;;2.15;1.33;;;18.50;92.90;;;;;;5065869;28;20033;-73
2022/09/04 08:46:28;;;;;;;2.67;0.93;;;18.50;92.80;;;;;;5064348;28;20044;-74
2022/09/04 08:49:16;;;;;;;4.07;1.55;;;18.80;93.00;;;;;;5073664;28;20550;-71
2022/09/04 08:51:50;;;;;;;2.85;1.42;;;18.80;92.90;;;;;;5073784;28;20546;-68
2022/09/04 08:54:15;;;;;;;;;;;18.90;93.00;;;;;;5071877;28;20527;-73
2022/09/04 08:56:48;;;;;;;4.03;1.88;;;19.00;93.00;;;;;;5072389;28;19916;-71
2022/09/04 08:59:36;;;;;;;3.88;1.13;;;19.10;92.90;;;;;;5073478;28;20480;-71
2022/09/04 09:02:40;;;;;;;1.85;0.82;;;19.10;92.80;;;;;;5071443;28;20123;-70
2022/09/04 09:05:25;;;;;;;4.57;1.33;;;19.20;92.80;;;;;;5073696;28;20041;-73
2022/09/04 09:08:09;;;;;;;4.55;1.20;;;19.40;92.70;;;;;;5073878;28;20369;-69
2022/09/04 09:11:00;;;;;;;6.93;1.33;;;19.40;92.70;;;;;;5072652;28;20052;-69
2022/09/04 09:13:41;;;;;;;3.55;0.98;;;19.50;92.60;;;;;;5067476;28;20066;-72
2022/09/04 09:16:30;;;;;;;3.28;1.13;;;19.60;92.70;;;;;;5072968;28;20036;-72
2022/09/04 09:19:07;;;;;;;4.50;1.40;;;19.70;92.70;;;;;;5073484;28;20044;-74
2022/09/04 09:22:08;;;;;;;1.30;1.05;;;19.80;92.40;;;;;;5073772;28;20127;-73
2022/09/04 09:24:48;;;;;;;1.67;1.20;;;20.00;92.40;;;;;;5068852;28;20047;-71
2022/09/04 09:27:48;;;;;;;6.50;1.20;;;20.10;92.30;;;;;;5069082;28;20484;-72
2022/09/04 09:30:22;;;;;;;5.68;1.58;;;20.20;92.20;;;;;;5060070;28;20447;-69
2022/09/04 09:33:02;;;;;;;3.80;0.85;;;20.20;92.00;;;;;;5069347;28;20052;-69
2022/09/04 09:36:05;;;;;;;3.15;1.10;;;20.30;92.00;;;;;;5067364;28;20048;-69
2022/09/04 09:38:49;;;;;;;3.65;0.80;;;20.30;92.00;;;;;;5070129;28;20044;-70
2022/09/04 09:41:33;;;;;;;2.05;0.70;;;20.50;91.90;;;;;;5065392;28;20075;-70
2022/09/04 09:44:08;;;;;;;1.92;1.10;;;20.60;91.90;;;;;;5070976;28;20037;-69
2022/09/04 09:47:02;;;;;;;6.05;1.30;;;20.70;91.50;;;;;;5072277;28;20436;-69
2022/09/04 09:49:43;;;;;;;4.63;1.00;;;20.80;91.40;;;;;;5066706;28;20173;-72
2022/09/04 09:52:25;;;;;;;2.72;1.02;;;20.90;91.40;;;;;;5068253;28;20060;-73
2022/09/04 09:55:28;;;;;;;2.22;1.02;;;21.00;91.20;;;;;;5069926;28;20488;-72
2022/09/04 09:58:05;;;;;;;1.23;0.93;;;21.10;91.20;;;;;;5063987;28;20033;-72
2022/09/04 10:01:05;;;;;;;2.92;1.25;;;21.30;91.30;;;;;;5065545;28;20071;-72
2022/09/04 10:03:54;;;;;;;5.90;1.40;;;21.40;91.20;;;;;;5069362;28;20037;-72
2022/09/04 10:07:06;;;;;;;1.92;0.85;;;21.40;90.60;;;;;;5080371;28;20186;-72
2022/09/04 10:10:02;;;;;;;2.28;0.82;;;21.50;90.60;;;;;;5066781;28;20044;-73
2022/09/04 10:13:13;;;;;;;1.17;0.82;;;21.60;90.80;;;;;;5064732;28;20043;-71
2022/09/04 10:16:10;;;;;;;2.45;0.65;;;21.80;90.40;;;;;;5070952;28;20056;-69
2022/09/04 10:19:03;;;;;;;3.10;1.02;;;22.00;90.30;;;;;;5066680;28;20437;-69
2022/09/04 10:22:00;;;;;;;4.35;0.80;;;22.10;89.90;;;;;;5064145;28;20408;-71
2022/09/04 10:24:36;;;;;;;6.70;1.23;;;22.20;88.80;;;;;;5065840;28;20051;-73
2022/09/04 10:27:30;;;;;;;3.22;1.13;;;22.20;89.20;;;;;;5071166;28;20120;-73
2022/09/04 10:30:09;;;;;;;2.53;0.73;;;22.30;88.60;;;;;;5069096;28;20127;-70
2022/09/04 10:32:44;;;;;;;2.00;0.80;;;22.40;88.80;;;;;;5071197;28;20080;-71
2022/09/04 10:35:24;;;;;;;1.35;0.57;;;22.30;89.10;;;;;;5071727;28;20048;-69
2022/09/04 10:38:34;;;;;;;1.90;0.82;;;22.60;88.60;;;;;;5072069;28;20040;-69
2022/09/04 10:41:17;;;;;;;1.00;0.80;;;22.70;87.70;;;;;;5061985;28;20052;-69
2022/09/04 10:43:49;;;;;;;3.80;1.10;;;22.90;87.30;;;;;;5071532;28;20491;-71
2022/09/04 10:46:31;;;;;;;1.65;1.00;;;22.80;87.50;;;;;;5070202;28;20522;-71
2022/09/04 10:49:29;;;;;;;3.67;0.90;;;22.90;87.60;;;;;;5065357;28;20045;-70
2022/09/04 10:52:42;;;;;;;2.78;0.80;;;23.10;87.30;;;;;;5071399;28;20040;-69
2022/09/04 10:55:35;;;;;;;1.83;1.05;;;23.10;87.60;;;;;;5068648;28;20527;-69
2022/09/04 10:58:19;;;;;;;3.28;1.10;;;23.20;87.70;;;;;;5071820;28;20083;-69
2022/09/04 11:01:03;;;;;;;2.65;1.08;;;23.30;86.70;;;;;;5067421;28;20120;-70
2022/09/04 11:03:53;;;;;;;2.20;1.02;;;23.30;86.90;;;;;;5070215;28;20044;-73
2022/09/04 11:06:51;;;;;;;1.02;0.52;;;23.40;87.10;;;;;;5065518;28;20070;-69
2022/09/04 11:09:25;;;;;;;2.28;0.73;;;23.50;86.30;;;;;;5070520;28;20048;-73
2022/09/04 11:12:09;;;;;;;;;;;23.60;86.10;;;;;;5066743;28;20097;-73
2022/09/04 11:15:18;;;;;;;3.72;0.75;;;23.70;86.50;;;;;;5066045;28;20007;-74
2022/09/04 11:18:26;;;;;;;3.13;0.82;;;23.80;86.10;;;;;;5066350;28;20084;-69
2022/09/04 11:21:06;;;;;;;3.03;1.27;;;23.90;84.90;;;;;;5071170;28;20439;-71
2022/09/04 11:23:50;;;;;;;2.75;0.50;;;24.00;85.40;;;;;;5064349;28;20049;-72
2022/09/04 11:27:00;;;;;;;3.10;0.77;;;24.10;85.40;;;;;;5070004;28;20044;-72
2022/09/04 11:29:40;;;;;;;1.38;0.95;;;24.30;85.00;;;;;;5060552;28;20355;-71
2022/09/04 11:32:23;;;;;;;4.25;0.70;;;24.40;85.40;;;;;;5069051;28;20044;-69
2022/09/04 11:35:25;;;;;;;3.25;0.77;;;24.60;84.60;;;;;;5071148;28;20047;-73
2022/09/04 11:38:08;;;;;;;1.70;0.68;;;24.60;84.40;;;;;;5070769;28;20052;-74
2022/09/04 11:41:09;;;;;;;4.88;0.82;;;24.70;83.60;;;;;;5069173;28;20055;-74
2022/09/04 11:44:03;;;;;;;3.55;0.85;;;24.80;84.30;;;;;;5065364;28;20370;-75
2022/09/04 11:46:40;;;;;;;2.90;0.80;;;24.90;83.70;;;;;;5063029;28;20121;-73
2022/09/04 11:49:12;;;;;;;1.95;0.60;;;24.90;84.50;;;;;;5070152;28;20413;-70
2022/09/04 11:52:13;;;;;;;3.20;1.35;;;25.00;83.80;;;;;;5069931;28;20127;-74
2022/09/04 11:54:58;;;;;;;1.08;0.60;;;25.10;83.20;;;;;;5064016;28;20048;-72
2022/09/04 11:57:36;;;;;;;4.68;0.80;;;25.10;83.50;;;;;;5069750;28;20059;-73
2022/09/04 12:00:36;;;;;;;2.42;0.80;;;25.20;83.50;;;;;;5066200;28;20072;-72
2022/09/04 12:03:11;;;;;;;1.45;0.70;;;25.40;82.50;;;;;;5066108;28;20124;-72
2022/09/04 12:06:05;;;;;;;0.98;0.77;;;25.50;82.00;;;;;;5062819;28;20074;-70
2022/09/04 12:08:43;;;;;;;1.08;0.60;;;25.50;82.10;;;;;;5069221;28;20036;-69
2022/09/04 12:11:40;;;;;;;3.25;0.55;;;25.60;81.90;;;;;;5069249;28;20048;-69
2022/09/04 12:14:30;;;;;;;1.48;0.73;;;25.60;81.90;;;;;;5066646;28;20480;-71
2022/09/04 12:17:34;;;;;;;1.00;0.75;;;25.60;82.00;;;;;;5070768;28;20051;-71
2022/09/04 12:20:37;;;;;;;2.67;1.13;;;25.50;81.80;;;;;;5064978;28;20036;-70
2022/09/04 12:23:30;;;;;;;1.98;0.88;;;25.40;81.80;;;;;;5065728;28;20052;-74
2022/09/04 12:26:13;;;;;;;1.85;1.00;;;25.50;82.30;;;;;;5064773;28;20187;-70
2022/09/04 12:29:01;;;;;;;1.85;0.70;;;25.50;81.80;;;;;;5065048;28;20126;-71
2022/09/04 12:31:57;;;;;;;3.50;0.70;;;25.50;81.90;;;;;;5069946;28;20055;-71
2022/09/04 12:34:32;;;;;;;4.47;1.05;;;25.70;81.60;;;;;;5068705;28;20047;-74
2022/09/04 12:37:18;;;;;;;3.25;0.73;;;25.80;81.70;;;;;;5068883;28;20052;-69
2022/09/04 12:40:07;;;;;;;4.28;0.98;;;25.90;81.30;;;;;;5062748;28;20040;-69
2022/09/04 12:42:56;;;;;;;7.47;0.80;;;26.10;81.00;;;;;;5069752;28;20066;-70
2022/09/04 12:45:28;;;;;;;4.32;0.98;;;26.20;81.00;;;;;;5070336;28;20041;-70
2022/09/04 12:48:18;;;;;;;1.33;0.77;;;26.30;80.50;;;;;;5064257;28;20048;-71
2022/09/04 12:50:56;;;;;;;2.13;0.80;;;26.40;80.30;;;;;;5066309;28;20032;-73
2022/09/04 12:53:47;;;;;;;0.90;0.60;;;26.50;80.80;;;;;;5067671;28;20040;-72
2022/09/04 12:56:48;;;;;;;2.03;0.63;;;26.50;80.50;;;;;;5069362;28;20119;-73
2022/09/04 12:59:51;;;;;;;1.10;0.60;;;26.50;79.60;;;;;;5056818;28;20048;-74
2022/09/04 13:02:26;;;;;;;1.80;0.70;;;26.50;80.20;;;;;;5066189;28;20047;-70
2022/09/04 13:05:13;;;;;;;3.13;1.10;;;26.50;80.20;;;;;;5070231;28;20068;-71
2022/09/04 13:07:54;;;;;;;2.35;0.80;;;26.50;79.70;;;;;;5077020;28;20080;-71
2022/09/04 13:10:41;;;;;;;2.03;0.95;;;26.50;79.70;;;;;;5069262;28;20048;-74
2022/09/04 13:13:28;;;;;;;1.95;1.00;;;26.60;79.50;;;;;;5068057;28;20047;-73
2022/09/04 13:16:02;;;;;;;0.80;0.57;;;26.60;79.70;;;;;;5062123;28;20396;-74
2022/09/04 13:18:43;;;;;;;1.50;0.60;;;26.70;79.10;;;;;;5069059;28;20473;-70
2022/09/04 13:21:15;;;;;;;2.33;0.90;;;26.70;79.10;;;;;;5068856;28;20127;-73
2022/09/04 13:23:49;;;;;;;3.78;0.80;;;26.80;79.10;;;;;;5066671;28;20504;-71
2022/09/04 13:26:30;;;;;;;3.55;0.88;;;26.80;78.80;;;;;;5069222;28;20404;-73
2022/09/04 13:29:25;;;;;;;1.85;0.90;;;26.80;78.70;;;;;;5067497;28;20492;-73
2022/09/04 13:32:21;;;;;;;4.97;0.70;;;26.80;78.60;;;;;;5063647;28;20369;-71
2022/09/04 13:35:10;;;;;;;3.00;1.02;;;26.80;78.50;;;;;;5065208;28;20037;-71
2022/09/04 13:37:51;;;;;;;0.80;0.73;;;26.80;78.50;;;;;;5073727;28;20048;-73
2022/09/04 13:40:41;;;;;;;1.83;0.57;;;26.90;78.40;;;;;;5073125;28;20044;-74
2022/09/04 13:43:20;;;;;;;1.60;0.63;;;26.80;78.40;;;;;;5067450;28;20083;-70
2022/09/04 13:46:02;;;;;;;1.88;0.65;;;26.80;78.20;;;;;;5070077;28;20392;-70
2022/09/04 13:48:31;;;;;;;6.97;1.00;;;26.80;78.20;;;;;;5072424;28;20049;-70
2022/09/04 13:51:21;;;;;;;1.20;0.60;;;26.70;78.50;;;;;;5072258;28;20044;-70
2022/09/04 13:54:08;;;;;;;2.70;0.68;;;26.70;78.00;;;;;;5066107;28;20051;-71
2022/09/04 13:56:44;;;;;;;2.90;0.88;;;26.60;78.60;;;;;;5072174;28;20040;-70
2022/09/04 13:59:15;;;;;;;2.15;0.65;;;26.70;79.60;;;;;;5067993;28;20775;-71
2022/09/04 14:01:46;;;;;;;1.10;0.75;;;26.70;79.10;;;;;;5065974;28;20033;-72
2022/09/04 14:04:21;;;;;;;1.88;0.88;;;26.70;78.80;;;;;;5071742;28;20044;-70
2022/09/04 14:06:47;;;;;;;5.25;0.50;;;26.70;78.40;;;;;;5071007;28;20037;-71
2022/09/04 14:09:14;;;;;;;2.22;0.70;;;26.80;78.50;;;;;;5072192;28;20098;-71
2022/09/04 14:12:05;;;;;;;3.00;0.77;;;26.60;78.90;;;;;;5072033;28;20048;-72
2022/09/04 14:14:47;;;;;;;1.20;0.90;;;26.70;78.70;;;;;;5072726;28;20059;-73
2022/09/04 14:17:19;;;;;;;3.28;0.50;;;26.70;78.40;;;;;;5068099;28;20048;-68
2022/09/04 14:19:57;;;;;;;3.95;0.60;;;26.70;78.00;;;;;;5071811;28;20047;-73
2022/09/04 14:23:01;;;;;;;1.25;0.70;;;26.80;78.30;;;;;;5069000;28;20040;-72
2022/09/04 14:25:49;;;;;;;2.83;0.98;;;26.80;79.00;;;;;;5048959;28;20091;-69
2022/09/04 14:28:45;;;;;;;5.63;1.48;;;26.80;78.40;;;;;;5072194;28;20075;-71